windsock image

Welcome to Bigfield Strip.

anemometer image
     

 Help for dials.  
 
Local Met:

Wind:   
10 Min average:  
240 ° / 4.2 kts (2.6)
232° / 3.6

Temperature:  
10.4°C C
Dew Point:  
9.0°C C
QNH:  
Trend:  
1020.6 mb mb
-0.4mb/hr
BigField Strip. This image updates approximately every minute, it can have a two minute delay.  
 

Humidity:  
91 %
Sunrise:   06:41z
Sunset:   16:53z
Updated:  
  UTC
 
   More met info, trends, radar, history etc. available here   

LUTON Metar   EGGW 230150Z 20005KT 160V230 9999 BKN026 09/09 Q1021
 
  TAF   2014/10/22 18:15 TAF EGGW 221701Z 2218/2318 23008KT 9999 SCT030 PROB30 TEMPO 2300/2309 BKN012 BECMG 2309/2312 BKN012 TEMPO 2309/2318 6000 -RADZ BKN006
 
BENSON Metar   EGUB 230150Z AUTO 18007KT 9999 // OVC025/// 11/08 Q1021
 
  TAF   2014/10/22 21:54 TAF TAF EGUB 222147Z 2221/2224 CNL
 
Big Field view 1 icon   Big Field view 2 icon   Big Field view 3 icon   Chart AL3a in PDF icon   Chart AL3a in Word icon

WARNING:
This information is provided by the Airstrip unofficial weather station, DO NOT depend on the data provided here for any purpose.
This page is updated for latest Metars & TAF's every 5 minutes. Refresh the browser to check for the lastest.
Page designed for a minimum browser size of 1024x768.
© Copyright 2014 BigField Strip. This page auto generated 02:16 UTC - 23/10/2014   Contact Us
Valid HTML 4.01 Transitional     Windows uptime: 2 Days 23 Hours 44 Minutes 29 Seconds    WD started: 02:37 20/10/14    Free memory: 1471MB     Valid CSS!